createdAt,value
2023-10-23T00:01:24.676Z,98750.13
2023-10-23T00:03:51.641Z,98754.56
2023-10-23T00:06:18.643Z,98755.59
2023-10-23T00:08:45.424Z,98745.19
2023-10-23T00:11:22.826Z,98745.69
2023-10-23T00:13:49.631Z,98752.81
2023-10-23T00:16:16.494Z,98751.97
2023-10-23T00:18:43.638Z,98758.88
2023-10-23T00:21:10.372Z,98758.59
2023-10-23T00:23:37.130Z,98766.41
2023-10-23T00:26:03.855Z,98770.25
2023-10-23T00:28:30.885Z,98758.69
2023-10-23T00:30:58.524Z,98776.53
2023-10-23T00:33:25.952Z,98774.22
2023-10-23T00:35:53.140Z,98781.94
2023-10-23T00:38:19.889Z,98785.56
2023-10-23T00:40:46.817Z,98789.16
2023-10-23T00:43:23.613Z,98784.91
2023-10-23T00:45:55.106Z,98781.28
2023-10-23T00:48:23.374Z,98782.63
2023-10-23T00:50:51.208Z,98785.13
2023-10-23T00:53:19.348Z,98783.75
2023-10-23T00:55:47.159Z,98783.28
2023-10-23T00:58:15.269Z,98785.13
2023-10-23T01:00:45.589Z,98785.25
2023-10-23T01:03:12.856Z,98794.28
2023-10-23T01:05:39.703Z,98792.41
2023-10-23T01:08:06.892Z,98782.81
2023-10-23T01:10:34.117Z,98790.78
2023-10-23T01:13:00.874Z,98789.94
2023-10-23T01:15:28.159Z,98784.81
2023-10-23T01:17:54.965Z,98796.78
2023-10-23T01:20:22.342Z,98797.72
2023-10-23T01:22:49.189Z,98795.53
2023-10-23T01:25:16.847Z,98794.38
2023-10-23T01:27:44.086Z,98801.94
2023-10-23T01:30:11.990Z,98801.94
2023-10-23T01:32:38.813Z,98800.69
2023-10-23T01:35:05.920Z,98797.91
2023-10-23T01:37:32.776Z,98805.03
2023-10-23T01:39:59.628Z,98802.16
2023-10-23T01:42:30.115Z,98803.78
2023-10-23T01:44:57.377Z,98807.81
2023-10-23T01:47:24.595Z,98806.69
2023-10-23T01:49:51.546Z,98798.03
2023-10-23T01:52:18.916Z,98792.31
2023-10-23T01:54:46.042Z,98797.28
2023-10-23T01:57:14.220Z,98798.69
2023-10-23T01:59:40.960Z,98797.19
2023-10-23T02:02:08.039Z,98795.94
2023-10-23T02:04:39.640Z,98809.44
2023-10-23T02:07:07.502Z,98810.88
2023-10-23T02:09:34.325Z,98808.09
2023-10-23T02:12:02.666Z,98799.53
2023-10-23T02:14:29.628Z,98803.97
2023-10-23T02:16:56.370Z,98805.47
2023-10-23T02:19:23.222Z,98811.94
2023-10-23T02:21:52.975Z,98821.00
2023-10-23T02:24:23.669Z,98812.97
2023-10-23T02:26:50.417Z,98812.97
2023-10-23T02:29:17.154Z,98810.53
2023-10-23T02:31:43.977Z,98814.31
2023-10-23T02:34:10.735Z,98817.94
2023-10-23T02:36:37.483Z,98812.34
2023-10-23T02:39:04.431Z,98814.81
2023-10-23T02:41:32.051Z,98821.84
2023-10-23T02:43:58.891Z,98826.47
2023-10-23T02:46:26.329Z,98828.75
2023-10-23T02:48:53.255Z,98832.38
2023-10-23T02:51:20.287Z,98835.22
2023-10-23T02:53:47.136Z,98843.03
2023-10-23T02:56:14.792Z,98837.00
2023-10-23T02:58:41.940Z,98840.63
2023-10-23T03:01:25.253Z,98835.25
2023-10-23T03:03:53.137Z,98833.09
2023-10-23T03:06:20.272Z,98835.88
2023-10-23T03:08:47.079Z,98842.34
2023-10-23T03:11:13.888Z,98843.66
2023-10-23T03:13:40.658Z,98847.66
2023-10-23T03:16:08.825Z,98843.38
2023-10-23T03:18:36.193Z,98841.72
2023-10-23T03:21:03.832Z,98841.34
2023-10-23T03:23:31.882Z,98842.00
2023-10-23T03:25:59.406Z,98841.34
2023-10-23T03:28:26.324Z,98843.00
2023-10-23T03:30:53.497Z,98843.28
2023-10-23T03:33:20.341Z,98850.53
2023-10-23T03:35:47.118Z,98850.22
2023-10-23T03:38:14.291Z,98847.69
2023-10-23T03:40:41.072Z,98841.59
2023-10-23T03:43:08.059Z,98845.78
2023-10-23T03:45:38.589Z,98848.25
2023-10-23T03:48:05.708Z,98841.03
2023-10-23T03:50:32.526Z,98849.91
2023-10-23T03:52:59.671Z,98849.09
2023-10-23T03:55:26.904Z,98850.38
2023-10-23T03:57:53.647Z,98844.28
2023-10-23T04:00:20.601Z,98849.19
2023-10-23T04:02:47.586Z,98845.56
2023-10-23T04:05:14.674Z,98844.66
2023-10-23T04:07:41.637Z,98846.28
2023-10-23T04:10:09.907Z,98845.34
2023-10-23T04:12:36.831Z,98850.59
2023-10-23T04:15:04.686Z,98844.34
2023-10-23T04:17:32.210Z,98846.00
2023-10-23T04:19:59.301Z,98843.00
2023-10-23T04:22:26.997Z,98851.56
2023-10-23T04:24:56.285Z,98856.81
2023-10-23T04:27:23.341Z,98854.88
2023-10-23T04:29:50.219Z,98859.09
2023-10-23T04:32:17.433Z,98848.88
2023-10-23T04:34:44.212Z,98847.91
2023-10-23T04:37:11.016Z,98850.53
2023-10-23T04:39:38.068Z,98848.28
2023-10-23T04:42:05.603Z,98851.44
2023-10-23T04:44:32.803Z,98842.38
2023-10-23T04:46:59.650Z,98854.59
2023-10-23T04:49:26.417Z,98850.53
2023-10-23T04:51:54.447Z,98848.19
2023-10-23T04:54:21.276Z,98848.88
2023-10-23T04:56:48.135Z,98842.59
2023-10-23T04:59:14.978Z,98846.88
2023-10-23T05:01:42.341Z,98845.50
2023-10-23T05:04:09.340Z,98851.75
2023-10-23T05:06:36.254Z,98847.84
2023-10-23T05:09:04.086Z,98845.88
2023-10-23T05:11:31.710Z,98843.19
2023-10-23T05:13:58.858Z,98841.84
2023-10-23T05:16:25.750Z,98842.22
2023-10-23T05:18:52.725Z,98841.25
2023-10-23T05:21:19.643Z,98842.22
2023-10-23T05:23:46.641Z,98845.44
2023-10-23T05:26:14.243Z,98848.25
2023-10-23T05:28:44.329Z,98858.22
2023-10-23T05:31:11.299Z,98850.31
2023-10-23T05:33:38.704Z,98862.44
2023-10-23T05:36:07.020Z,98855.88
2023-10-23T05:38:34.129Z,98857.59
2023-10-23T05:41:01.495Z,98853.75
2023-10-23T05:43:28.678Z,98866.16
2023-10-23T05:45:59.020Z,98860.25
2023-10-23T05:48:26.225Z,98863.16
2023-10-23T05:51:05.173Z,98866.25
2023-10-23T05:53:32.652Z,98873.97
2023-10-23T05:56:06.848Z,98877.28
2023-10-23T05:58:37.338Z,98881.88
2023-10-23T06:01:14.509Z,98877.22
2023-10-23T06:03:41.813Z,98884.41
2023-10-23T06:06:08.942Z,98885.22
2023-10-23T06:08:35.893Z,98884.16
2023-10-23T06:11:03.283Z,98886.72
2023-10-23T06:13:30.060Z,98886.84
2023-10-23T06:16:04.655Z,98892.69
2023-10-23T06:18:33.475Z,98889.78
2023-10-23T06:21:03.526Z,98886.66
2023-10-23T06:23:34.933Z,98888.09
2023-10-23T06:26:01.798Z,98882.59
2023-10-23T06:28:28.600Z,98895.59
2023-10-23T06:30:55.425Z,98896.41
2023-10-23T06:33:22.362Z,98891.84
2023-10-23T06:35:59.283Z,98893.09
2023-10-23T06:38:26.252Z,98890.34
2023-10-23T06:40:53.217Z,98887.56
2023-10-23T06:43:22.076Z,98898.88
2023-10-23T06:46:01.920Z,98902.59
2023-10-23T06:48:29.861Z,98893.56
2023-10-23T06:50:56.885Z,98902.94
2023-10-23T06:53:23.987Z,98905.56
2023-10-23T06:55:53.371Z,98905.25
2023-10-23T06:58:21.445Z,98913.44
2023-10-23T07:00:49.408Z,98903.88
2023-10-23T07:03:16.768Z,98907.28
2023-10-23T07:05:44.646Z,98906.16
2023-10-23T07:08:12.104Z,98914.31
2023-10-23T07:10:40.552Z,98914.13
2023-10-23T07:13:21.392Z,98909.44
2023-10-23T07:15:50.918Z,98914.44
2023-10-23T07:18:19.631Z,98912.84
2023-10-23T07:20:55.381Z,98897.75
2023-10-23T07:23:23.579Z,98911.28
2023-10-23T07:26:03.577Z,98914.69
2023-10-23T07:28:30.549Z,98911.84
2023-10-23T07:30:57.381Z,98906.59
2023-10-23T07:33:24.262Z,98910.66
2023-10-23T07:36:00.347Z,98918.78
2023-10-23T07:38:27.126Z,98912.56
2023-10-23T07:40:53.845Z,98924.66
2023-10-23T07:43:20.619Z,98921.16
2023-10-23T07:45:50.387Z,98923.81
2023-10-23T07:48:19.132Z,98920.06
2023-10-23T07:50:46.070Z,98922.03
2023-10-23T07:53:12.906Z,98910.59
2023-10-23T07:55:39.639Z,98910.50
2023-10-23T07:58:06.951Z,98916.03
2023-10-23T08:00:33.919Z,98905.66
2023-10-23T08:03:01.378Z,98917.00
2023-10-23T08:05:28.723Z,98921.00
2023-10-23T08:07:55.715Z,98914.91
2023-10-23T08:10:22.631Z,98915.63
2023-10-23T08:12:49.660Z,98899.34
2023-10-23T08:15:17.011Z,98907.81
2023-10-23T08:17:43.895Z,98911.44
2023-10-23T08:20:11.273Z,98918.31
2023-10-23T08:22:38.878Z,98913.38
2023-10-23T08:25:06.745Z,98912.78
2023-10-23T08:27:33.617Z,98913.16
2023-10-23T08:30:00.852Z,98917.91
2023-10-23T08:32:34.226Z,98910.22
2023-10-23T08:35:08.522Z,98917.31
2023-10-23T08:37:35.506Z,98917.34
2023-10-23T08:40:04.716Z,98919.50
2023-10-23T08:42:35.898Z,98912.09
2023-10-23T08:45:03.742Z,98904.34
2023-10-23T08:47:31.214Z,98896.91
2023-10-23T08:50:02.564Z,98899.41
2023-10-23T08:52:33.749Z,98901.88
2023-10-23T08:55:01.677Z,98904.88
2023-10-23T08:57:30.479Z,98900.72
2023-10-23T08:59:58.052Z,98899.25
2023-10-23T09:02:24.874Z,98893.78
2023-10-23T09:04:51.927Z,98893.13
2023-10-23T09:07:19.070Z,98891.50
2023-10-23T09:09:45.908Z,98896.41
2023-10-23T09:12:30.851Z,98880.41
2023-10-23T09:14:57.625Z,98882.69
2023-10-23T09:17:25.178Z,98878.53
2023-10-23T09:19:51.993Z,98888.56
2023-10-23T09:22:18.894Z,98884.22
2023-10-23T09:24:46.807Z,98887.38
2023-10-23T09:27:13.661Z,98889.97
2023-10-23T09:29:40.675Z,98882.72
2023-10-23T09:32:08.528Z,98888.75
2023-10-23T09:34:46.242Z,98887.94
2023-10-23T09:37:13.269Z,98886.91
2023-10-23T09:39:41.293Z,98870.13
2023-10-23T09:42:10.096Z,98869.03
2023-10-23T09:44:38.714Z,98860.66
2023-10-23T09:47:07.136Z,98852.91
2023-10-23T09:49:34.207Z,98856.44
2023-10-23T09:52:01.751Z,98867.97
2023-10-23T09:54:35.131Z,98870.13
2023-10-23T09:57:07.467Z,98868.84
2023-10-23T09:59:44.101Z,98862.25
2023-10-23T10:02:11.830Z,98862.06
2023-10-23T10:05:02.352Z,98867.03
2023-10-23T10:08:04.673Z,98859.09
2023-10-23T10:10:34.205Z,98859.97
2023-10-23T10:13:02.171Z,98857.31
2023-10-23T10:15:29.515Z,98857.44
2023-10-23T10:17:56.319Z,98847.72
2023-10-23T10:20:24.066Z,98848.78
2023-10-23T10:23:02.385Z,98855.81
2023-10-23T10:25:29.625Z,98854.00
2023-10-23T10:28:00.815Z,98844.69
2023-10-23T10:30:51.274Z,98850.00
2023-10-23T10:34:19.530Z,98836.50
2023-10-23T10:36:13.948Z,98830.16
2023-10-23T10:38:42.220Z,98840.53
2023-10-23T10:41:19.622Z,98838.88
2023-10-23T10:43:54.102Z,98829.66
2023-10-23T10:46:23.590Z,98829.94
2023-10-23T10:48:52.768Z,98839.81
2023-10-23T10:51:28.461Z,98830.63
2023-10-23T10:54:01.909Z,98827.66
2023-10-23T10:56:28.738Z,98823.72
2023-10-23T10:58:55.990Z,98814.78
2023-10-23T11:01:23.723Z,98819.78
2023-10-23T11:03:50.624Z,98804.41
2023-10-23T11:06:18.029Z,98820.31
2023-10-23T11:08:48.264Z,98799.38
2023-10-23T11:11:15.046Z,98792.06
2023-10-23T11:13:41.908Z,98786.47
2023-10-23T11:16:08.818Z,98782.31
2023-10-23T11:18:36.211Z,98781.25
2023-10-23T11:21:03.456Z,98775.22
2023-10-23T11:23:31.675Z,98774.88
2023-10-23T11:25:59.200Z,98775.19
2023-10-23T11:28:27.545Z,98777.84
2023-10-23T11:30:59.139Z,98771.59
2023-10-23T11:33:26.164Z,98771.44
2023-10-23T11:35:53.836Z,98770.63
2023-10-23T11:38:22.510Z,98770.06
2023-10-23T11:40:49.523Z,98765.00
2023-10-23T11:43:19.330Z,98764.16
2023-10-23T11:45:47.568Z,98761.56
2023-10-23T11:48:15.040Z,98774.03
2023-10-23T11:50:42.896Z,98769.19
2023-10-23T11:53:10.087Z,98764.81
2023-10-23T11:55:37.926Z,98768.63
2023-10-23T11:58:05.337Z,98754.91
2023-10-23T12:00:35.259Z,98761.34
2023-10-23T12:03:02.738Z,98754.53
2023-10-23T12:05:29.609Z,98756.28
2023-10-23T12:07:57.260Z,98752.25
2023-10-23T12:10:27.646Z,98732.66
2023-10-23T12:12:56.258Z,98741.25
2023-10-23T12:15:28.867Z,98724.09
2023-10-23T12:17:56.049Z,98716.94
2023-10-23T12:20:23.565Z,98711.69
2023-10-23T12:22:54.882Z,98718.91
2023-10-23T12:25:22.740Z,98728.56
2023-10-23T12:27:49.877Z,98722.81
2023-10-23T12:30:23.937Z,98719.28
2023-10-23T12:33:16.837Z,98715.47
2023-10-23T12:35:40.866Z,98707.91
2023-10-23T12:38:07.803Z,98713.00
2023-10-23T12:40:36.957Z,98718.91
2023-10-23T12:43:05.568Z,98705.63
2023-10-23T12:45:33.058Z,98707.50
2023-10-23T12:48:00.091Z,98703.16
2023-10-23T12:50:27.050Z,98702.22
2023-10-23T12:52:53.900Z,98707.16
2023-10-23T12:55:20.706Z,98706.16
2023-10-23T12:57:47.649Z,98703.41
2023-10-23T13:00:15.351Z,98702.09
2023-10-23T13:02:44.117Z,98696.97
2023-10-23T13:05:12.218Z,98692.88
2023-10-23T13:07:39.296Z,98692.44
2023-10-23T13:10:06.833Z,98680.47
2023-10-23T13:12:33.749Z,98682.75
2023-10-23T13:15:00.748Z,98678.22
2023-10-23T13:17:27.565Z,98680.28
2023-10-23T13:19:56.450Z,98679.25
2023-10-23T13:22:24.334Z,98667.72
2023-10-23T13:24:51.202Z,98669.34
2023-10-23T13:27:17.984Z,98673.03
2023-10-23T13:29:45.351Z,98668.13
2023-10-23T13:32:15.833Z,98669.06
2023-10-23T13:34:44.489Z,98667.72
2023-10-23T13:37:12.618Z,98661.91
2023-10-23T13:39:40.092Z,98658.50
2023-10-23T13:42:07.276Z,98645.75
2023-10-23T13:44:34.747Z,98654.44
2023-10-23T13:47:02.188Z,98654.28
2023-10-23T13:49:29.279Z,98623.38
2023-10-23T13:51:56.120Z,98631.16
2023-10-23T13:54:24.096Z,98627.41
2023-10-23T13:56:50.945Z,98624.50
2023-10-23T13:59:17.853Z,98627.56
2023-10-23T14:01:44.743Z,98614.47
2023-10-23T14:04:12.465Z,98613.66
2023-10-23T14:06:40.145Z,98610.50
2023-10-23T14:09:40.944Z,98604.91
2023-10-23T14:11:59.143Z,98592.84
2023-10-23T14:14:27.441Z,98598.97
2023-10-23T14:16:54.461Z,98589.72
2023-10-23T14:19:33.781Z,98594.41
2023-10-23T14:22:05.653Z,98588.53
2023-10-23T14:24:32.402Z,98587.22
2023-10-23T14:26:59.094Z,98593.72
2023-10-23T14:29:26.202Z,98584.75
2023-10-23T14:31:53.030Z,98585.66
2023-10-23T14:34:20.400Z,98588.75
2023-10-23T14:36:49.267Z,98584.56
2023-10-23T14:39:16.093Z,98574.84
2023-10-23T14:41:42.885Z,98567.56
2023-10-23T14:44:09.929Z,98564.00
2023-10-23T14:46:36.751Z,98560.97
2023-10-23T14:49:04.405Z,98558.97
2023-10-23T14:51:31.153Z,98550.75
2023-10-23T14:53:57.977Z,98544.81
2023-10-23T14:56:24.723Z,98542.63
2023-10-23T14:58:51.518Z,98553.03
2023-10-23T15:01:18.454Z,98548.50
2023-10-23T15:03:45.617Z,98543.38
2023-10-23T15:06:13.834Z,98534.81
2023-10-23T15:08:42.720Z,98535.75
2023-10-23T15:11:16.079Z,98535.75
2023-10-23T15:13:43.100Z,98519.50
2023-10-23T15:16:10.003Z,98511.38
2023-10-23T15:18:37.166Z,98514.50
2023-10-23T15:21:06.103Z,98509.84
2023-10-23T15:23:33.627Z,98508.88
2023-10-23T15:26:00.784Z,98503.41
2023-10-23T15:28:27.888Z,98504.22
2023-10-23T15:31:02.320Z,98489.38
2023-10-23T15:33:29.984Z,98487.75
2023-10-23T15:35:58.483Z,98479.44
2023-10-23T15:38:26.369Z,98476.91
2023-10-23T15:40:54.333Z,98478.09
2023-10-23T15:43:22.292Z,98470.78
2023-10-23T15:45:51.853Z,98469.50
2023-10-23T15:48:20.677Z,98469.50
2023-10-23T15:50:47.591Z,98449.06
2023-10-23T15:53:14.905Z,98461.56
2023-10-23T15:55:41.663Z,98462.44
2023-10-23T15:58:08.665Z,98451.16
2023-10-23T16:00:35.968Z,98450.88
2023-10-23T16:03:02.764Z,98454.63
2023-10-23T16:05:30.362Z,98442.75
2023-10-23T16:07:57.310Z,98445.97
2023-10-23T16:10:26.427Z,98439.13
2023-10-23T16:12:53.579Z,98439.59
2023-10-23T16:15:22.161Z,98439.19
2023-10-23T16:17:49.008Z,98424.41
2023-10-23T16:20:16.734Z,98426.44
2023-10-23T16:22:44.864Z,98419.56
2023-10-23T16:25:11.847Z,98423.63
2023-10-23T16:27:38.876Z,98434.63
2023-10-23T16:30:07.690Z,98423.50
2023-10-23T16:32:35.527Z,98432.00
2023-10-23T16:35:02.650Z,98432.00
2023-10-23T16:37:30.493Z,98430.06
2023-10-23T16:39:58.649Z,98424.78
2023-10-23T16:42:25.610Z,98417.66
2023-10-23T16:44:56.406Z,98417.38
2023-10-23T16:47:24.552Z,98415.75
2023-10-23T16:49:54.320Z,98422.66
2023-10-23T16:52:21.441Z,98433.50
2023-10-23T16:54:48.816Z,98429.28
2023-10-23T16:57:19.258Z,98430.16
2023-10-23T16:59:49.427Z,98431.28
2023-10-23T17:02:16.562Z,98428.25
2023-10-23T17:04:43.747Z,98433.66
2023-10-23T17:07:10.794Z,98438.59
2023-10-23T17:09:38.114Z,98436.91
2023-10-23T17:12:05.667Z,98438.63
2023-10-23T17:14:33.404Z,98427.91
2023-10-23T17:17:00.728Z,98427.81
2023-10-23T17:19:29.487Z,98425.75
2023-10-23T17:21:56.885Z,98428.69
2023-10-23T17:24:24.339Z,98423.53
2023-10-23T17:26:51.695Z,98423.03
2023-10-23T17:29:18.642Z,98420.91
2023-10-23T17:31:46.076Z,98428.34
2023-10-23T17:34:13.077Z,98417.81
2023-10-23T17:36:40.230Z,98410.34
2023-10-23T17:39:07.866Z,98393.25
2023-10-23T17:41:35.075Z,98398.25
2023-10-23T17:44:02.782Z,98388.88
2023-10-23T17:46:31.256Z,98386.84
2023-10-23T17:48:58.405Z,98379.91
2023-10-23T17:51:25.833Z,98385.38
2023-10-23T17:54:05.010Z,98379.91
2023-10-23T17:56:36.991Z,98367.81
2023-10-23T17:59:05.099Z,98353.41
2023-10-23T18:01:32.391Z,98352.69
2023-10-23T18:03:59.961Z,98347.19
2023-10-23T18:06:27.557Z,98350.94
2023-10-23T18:08:54.910Z,98362.03
2023-10-23T18:11:22.150Z,98350.47
2023-10-23T18:13:49.763Z,98355.75
2023-10-23T18:16:16.967Z,98344.56
2023-10-23T18:18:44.009Z,98356.34
2023-10-23T18:21:12.589Z,98352.22
2023-10-23T18:23:40.233Z,98360.16
2023-10-23T18:26:07.490Z,98359.56
2023-10-23T18:28:37.201Z,98368.34
2023-10-23T18:31:05.607Z,98384.84
2023-10-23T18:33:32.890Z,98373.13
2023-10-23T18:36:04.412Z,98384.50
2023-10-23T18:38:32.044Z,98381.78
2023-10-23T18:40:59.818Z,98393.34
2023-10-23T18:43:29.311Z,98395.88
2023-10-23T18:45:57.475Z,98403.50
2023-10-23T18:48:25.405Z,98400.00
2023-10-23T18:51:00.916Z,98414.88
2023-10-23T18:53:29.312Z,98429.41
2023-10-23T18:55:56.676Z,98428.69
2023-10-23T18:58:24.306Z,98432.41
2023-10-23T19:00:52.711Z,98431.41
2023-10-23T19:03:19.931Z,98436.69
2023-10-23T19:05:48.311Z,98436.38
2023-10-23T19:08:15.786Z,98433.91
2023-10-23T19:10:44.289Z,98428.59
2023-10-23T19:13:13.351Z,98414.94
2023-10-23T19:15:42.645Z,98403.66
2023-10-23T19:18:10.277Z,98408.00
2023-10-23T19:20:37.423Z,98403.31
2023-10-23T19:23:07.432Z,98406.88
2023-10-23T19:25:35.827Z,98396.34
2023-10-23T19:28:05.876Z,98400.13
2023-10-23T19:30:36.922Z,98390.19
2023-10-23T19:33:07.429Z,98390.50
2023-10-23T19:35:35.263Z,98384.78
2023-10-23T19:38:06.455Z,98377.22
2023-10-23T19:40:35.241Z,98372.66
2023-10-23T19:43:14.215Z,98378.28
2023-10-23T19:45:41.869Z,98371.22
2023-10-23T19:48:13.770Z,98371.09
2023-10-23T19:50:46.173Z,98377.28
2023-10-23T19:53:17.172Z,98365.41
2023-10-23T19:55:48.258Z,98372.16
2023-10-23T19:58:17.191Z,98383.22
2023-10-23T20:00:44.851Z,98376.47
2023-10-23T20:03:12.043Z,98362.91
2023-10-23T20:05:39.198Z,98360.09
2023-10-23T20:08:06.670Z,98364.31
2023-10-23T20:10:34.289Z,98385.06
2023-10-23T20:13:02.048Z,98380.84
2023-10-23T20:15:30.682Z,98379.78
2023-10-23T20:17:58.019Z,98395.31
2023-10-23T20:20:25.631Z,98402.13
2023-10-23T20:22:52.736Z,98387.31
2023-10-23T20:25:20.244Z,98372.53
2023-10-23T20:27:47.321Z,98378.06
2023-10-23T20:30:15.835Z,98379.56
2023-10-23T20:32:43.363Z,98370.28
2023-10-23T20:35:10.774Z,98372.59
2023-10-23T20:37:38.073Z,98364.31
2023-10-23T20:40:06.674Z,98365.09
2023-10-23T20:42:39.414Z,98364.69
2023-10-23T20:45:07.046Z,98356.78
2023-10-23T20:47:35.093Z,98355.00
2023-10-23T20:50:04.552Z,98343.16
2023-10-23T20:52:32.725Z,98347.41
2023-10-23T20:55:01.033Z,98338.41
2023-10-23T20:57:28.321Z,98339.56
2023-10-23T20:59:55.462Z,98339.06
2023-10-23T21:02:23.174Z,98328.19
2023-10-23T21:04:50.278Z,98325.38
2023-10-23T21:07:18.507Z,98321.38
2023-10-23T21:09:45.594Z,98335.56
2023-10-23T21:12:12.585Z,98323.00
2023-10-23T21:14:47.937Z,98302.75
2023-10-23T21:17:16.189Z,98283.78
2023-10-23T21:19:43.625Z,98273.56
2023-10-23T21:22:11.510Z,98270.34
2023-10-23T21:24:39.092Z,98265.56
2023-10-23T21:27:07.544Z,98263.09
2023-10-23T21:29:34.689Z,98252.56
2023-10-23T21:32:02.280Z,98246.41
2023-10-23T21:34:29.624Z,98249.22
2023-10-23T21:36:57.377Z,98228.84
2023-10-23T21:39:24.553Z,98225.31
2023-10-23T21:41:52.197Z,98229.22
2023-10-23T21:44:19.676Z,98218.22
2023-10-23T21:46:47.120Z,98211.09
2023-10-23T21:49:15.166Z,98207.13
2023-10-23T21:51:42.891Z,98194.66
2023-10-23T21:54:10.859Z,98193.25
2023-10-23T21:57:21.233Z,98193.59
2023-10-23T21:59:26.868Z,98188.13
2023-10-23T22:01:54.380Z,98185.91
2023-10-23T22:04:21.882Z,98178.31
2023-10-23T22:06:52.407Z,98168.44
2023-10-23T22:09:20.307Z,98180.72
2023-10-23T22:11:47.925Z,98181.78
2023-10-23T22:14:16.608Z,98189.56
2023-10-23T22:16:44.301Z,98189.78
2023-10-23T22:19:11.442Z,98181.13
2023-10-23T22:21:38.575Z,98188.88
2023-10-23T22:24:06.533Z,98187.69
2023-10-23T22:26:36.266Z,98177.41
2023-10-23T22:29:03.870Z,98170.25
2023-10-23T22:31:31.886Z,98177.16
2023-10-23T22:33:58.986Z,98168.97
2023-10-23T22:36:26.101Z,98175.53
2023-10-23T22:38:53.642Z,98167.19
2023-10-23T22:41:20.794Z,98150.59
2023-10-23T22:43:48.322Z,98154.56
2023-10-23T22:46:15.553Z,98151.50
2023-10-23T22:48:42.960Z,98158.94
2023-10-23T22:51:10.589Z,98155.59
2023-10-23T22:53:38.760Z,98154.25
2023-10-23T22:56:09.024Z,98158.19
2023-10-23T22:58:38.034Z,98152.09
2023-10-23T23:01:05.595Z,98153.25
2023-10-23T23:03:33.319Z,98145.19
2023-10-23T23:06:06.720Z,98134.19
2023-10-23T23:08:41.200Z,98137.47
2023-10-23T23:11:09.049Z,98130.91
2023-10-23T23:13:36.404Z,98125.88
2023-10-23T23:16:05.782Z,98127.63
2023-10-23T23:18:34.910Z,98134.53
2023-10-23T23:21:04.735Z,98121.03
2023-10-23T23:23:31.952Z,98123.94
2023-10-23T23:25:59.299Z,98122.59
2023-10-23T23:28:27.241Z,98119.56
2023-10-23T23:30:54.519Z,98122.19
2023-10-23T23:33:21.699Z,98121.63
2023-10-23T23:35:48.756Z,98124.75
2023-10-23T23:38:16.205Z,98119.94
2023-10-23T23:40:43.800Z,98127.19
2023-10-23T23:43:11.028Z,98116.06
2023-10-23T23:45:38.069Z,98112.59
2023-10-23T23:48:05.566Z,98106.72
2023-10-23T23:50:32.952Z,98110.41
2023-10-23T23:53:00.753Z,98109.53
2023-10-23T23:55:28.718Z,98110.84
2023-10-23T23:57:55.852Z,98117.22
